Time;durP1;ratioP1;P1;durP2;ratioP2;P2;SDS_P1;SDS_P2;PMS_P1;PMS_P2;Temp;Humidity;BMP_temperature;BMP_pressure;BME280_temperature;BME280_humidity;BME280_pressure;Samples;Min_cycle;Max_cycle;Signal;HPM_P1;HPM_P2
2021/07/27 00:01:30;;;;;;;2.70;2.50;;;;;;;14.11;100.00;95541.66;5039215;28;20244;-72
2021/07/27 00:03:57;;;;;;;3.83;3.53;;;;;;;14.07;100.00;95545.72;5032602;28;20314;-73
2021/07/27 00:06:26;;;;;;;2.43;2.33;;;;;;;14.03;100.00;95545.34;5040373;28;20289;-73
2021/07/27 00:08:54;;;;;;;1.83;1.70;;;;;;;14.01;100.00;95549.22;5051604;28;20280;-73
2021/07/27 00:11:23;;;;;;;2.50;2.07;;;;;;;14.08;100.00;95552.66;5047515;28;20229;-73
2021/07/27 00:13:52;;;;;;;5.23;3.17;;;;;;;14.13;100.00;95550.19;5049429;28;20558;-72
2021/07/27 00:16:21;;;;;;;3.57;3.27;;;;;;;14.13;100.00;95551.03;5052975;28;20233;-73
2021/07/27 00:18:49;;;;;;;2.57;1.60;;;;;;;14.09;100.00;95559.63;5056375;28;20520;-73
2021/07/27 00:21:16;;;;;;;5.80;3.00;;;;;;;14.08;100.00;95552.66;5054483;28;20287;-73
2021/07/27 00:23:45;;;;;;;3.53;2.03;;;;;;;14.06;100.00;95549.41;5058947;28;20589;-73
2021/07/27 00:26:14;;;;;;;2.47;2.20;;;;;;;14.08;100.00;95557.97;5057152;28;20566;-73
2021/07/27 00:28:44;;;;;;;2.80;2.23;;;;;;;14.08;100.00;95547.34;5054279;28;20245;-72
2021/07/27 00:31:17;;;;;;;2.57;2.37;;;;;;;14.09;100.00;95535.72;5060702;28;20279;-73
2021/07/27 00:33:46;;;;;;;2.57;2.47;;;;;;;14.10;100.00;95530.22;5054297;28;20210;-73
2021/07/27 00:36:14;;;;;;;2.73;2.33;;;;;;;14.18;100.00;95537.13;5060839;28;20249;-73
2021/07/27 00:38:43;;;;;;;2.70;2.20;;;;;;;14.19;100.00;95538.75;5059654;28;20228;-73
2021/07/27 00:41:10;;;;;;;5.07;2.43;;;;;;;14.12;100.00;95537.97;5059132;28;20644;-72
2021/07/27 00:43:39;;;;;;;2.20;2.00;;;;;;;14.09;100.00;95528.59;5053352;28;20612;-72
2021/07/27 00:46:08;;;;;;;1.90;1.80;;;;;;;14.06;100.00;95528.97;5043529;28;20700;-72
2021/07/27 00:48:36;;;;;;;1.93;1.83;;;;;;;14.04;100.00;95525.72;5059715;28;20356;-73
2021/07/27 00:51:05;;;;;;;5.93;1.60;;;;;;;14.03;100.00;95525.94;5048308;28;20590;-72
2021/07/27 00:53:35;;;;;;;4.93;2.37;;;;;;;14.03;100.00;95533.91;5057950;28;20222;-72
2021/07/27 00:56:05;;;;;;;2.70;2.50;;;;;;;14.02;100.00;95542.88;5030929;28;20288;-73
2021/07/27 00:58:33;;;;;;;2.50;1.80;;;;;;;13.99;100.00;95540.63;5034979;28;20715;-73
2021/07/27 01:01:02;;;;;;;1.37;1.20;;;;;;;13.97;100.00;95548.00;5052926;28;20226;-72
2021/07/27 01:03:31;;;;;;;2.03;1.93;;;;;;;13.91;100.00;95547.81;5047512;28;20234;-72
2021/07/27 01:06:00;;;;;;;5.30;3.47;;;;;;;13.84;100.00;95547.00;5047553;28;20596;-72
2021/07/27 01:08:27;;;;;;;2.27;1.80;;;;;;;13.79;100.00;95546.78;5050864;28;20210;-73
2021/07/27 01:10:56;;;;;;;3.70;2.67;;;;;;;13.71;100.00;95560.25;5051447;28;20278;-73
2021/07/27 01:13:25;;;;;;;2.27;2.17;;;;;;;13.49;100.00;95559.69;5054472;28;20523;-73
2021/07/27 01:15:55;;;;;;;8.30;3.40;;;;;;;13.51;100.00;95562.13;5035539;28;20298;-73
2021/07/27 01:18:28;;;;;;;5.40;3.43;;;;;;;13.44;100.00;95550.69;5053598;28;22784;-72
2021/07/27 01:37:47;;;;;;;3.80;2.60;;;;;;;13.51;100.00;95557.63;5037588;28;20237;-73
2021/07/27 01:40:18;;;;;;;2.93;1.80;;;;;;;13.54;100.00;95557.25;5035740;28;20232;-73
2021/07/27 01:42:45;;;;;;;1.40;1.30;;;;;;;13.55;100.00;95560.72;5056748;28;20881;-73
2021/07/27 01:45:21;;;;;;;2.40;2.20;;;;;;;13.60;100.00;95561.72;5032467;28;20348;-72
2021/07/27 01:47:48;;;;;;;1.97;1.87;;;;;;;13.63;100.00;95555.19;5047697;28;20237;-73
2021/07/27 01:50:17;;;;;;;5.00;4.50;;;;;;;13.68;100.00;95551.91;5053052;28;20246;-72
2021/07/27 01:52:49;;;;;;;4.33;2.90;;;;;;;13.74;100.00;95541.31;5053085;28;20222;-72
2021/07/27 01:55:20;;;;;;;4.37;4.03;;;;;;;13.81;100.00;95541.31;5052442;28;20270;-73
2021/07/27 01:57:49;;;;;;;6.67;3.13;;;;;;;13.83;100.00;95537.41;5051477;28;20711;-72
2021/07/27 02:00:18;;;;;;;6.33;2.70;;;;;;;13.86;100.00;95538.84;5051446;28;20251;-73
2021/07/27 02:02:46;;;;;;;3.27;2.83;;;;;;;13.86;100.00;95538.84;5053961;28;20275;-72
2021/07/27 02:05:15;;;;;;;2.70;2.23;;;;;;;13.87;100.00;95535.97;5051990;28;20227;-73
2021/07/27 02:07:51;;;;;;;3.93;2.93;;;;;;;13.87;100.00;95541.28;5052835;28;20250;-73
2021/07/27 02:10:21;;;;;;;4.80;2.10;;;;;;;13.84;100.00;95536.41;5038102;28;20228;-73
2021/07/27 02:12:54;;;;;;;3.30;2.50;;;;;;;13.80;100.00;95535.16;5052086;28;20273;-73
2021/07/27 02:15:23;;;;;;;8.17;2.40;;;;;;;13.83;100.00;95536.59;5053411;28;20245;-73
2021/07/27 02:17:51;;;;;;;8.07;2.70;;;;;;;13.84;100.00;95536.41;5041257;28;20221;-73
2021/07/27 02:20:20;;;;;;;5.60;2.70;;;;;;;13.85;100.00;95542.50;5057431;28;20300;-73
2021/07/27 02:22:48;;;;;;;6.33;3.30;;;;;;;13.81;100.00;95541.31;5039273;28;20317;-73
2021/07/27 02:25:17;;;;;;;4.77;2.63;;;;;;;13.78;100.00;95539.88;5035995;28;20246;-73
2021/07/27 02:27:46;;;;;;;2.27;2.03;;;;;;;13.74;100.00;95540.50;5039220;28;20242;-73
2021/07/27 02:30:15;;;;;;;2.07;1.87;;;;;;;13.70;100.00;95544.56;5055058;28;20226;-72
2021/07/27 02:32:45;;;;;;;1.80;1.70;;;;;;;13.63;100.00;95547.25;5054103;28;20361;-73
2021/07/27 02:35:14;;;;;;;5.63;1.90;;;;;;;13.41;100.00;95546.63;5034371;28;20694;-73
2021/07/27 02:37:42;;;;;;;13.97;3.20;;;;;;;13.22;100.00;95556.19;5036386;28;22087;-72
2021/07/27 02:40:11;;;;;;;2.60;2.37;;;;;;;12.99;100.00;95545.97;5048475;28;20214;-72
2021/07/27 02:42:39;;;;;;;2.30;2.00;;;;;;;12.92;100.00;95546.97;5032593;28;20292;-72
2021/07/27 02:45:11;;;;;;;1.40;1.30;;;;;;;12.94;100.00;95539.63;5048182;28;20230;-72
2021/07/27 02:47:40;;;;;;;6.20;2.70;;;;;;;12.92;100.00;95544.31;5055401;28;20347;-72
2021/07/27 02:50:10;;;;;;;2.53;2.23;;;;;;;12.87;100.00;95533.50;5048160;28;20215;-72
2021/07/27 02:52:38;;;;;;;6.83;2.10;;;;;;;12.86;100.00;95534.50;5027899;28;20712;-73
2021/07/27 02:55:07;;;;;;;6.73;2.27;;;;;;;12.89;100.00;95539.41;5050876;28;20222;-72
2021/07/27 02:57:35;;;;;;;4.87;2.83;;;;;;;12.86;100.00;95539.81;5048237;28;20276;-73
2021/07/27 03:00:04;;;;;;;9.53;1.53;;;;;;;12.84;100.00;95544.50;5045148;28;20206;-73
2021/07/27 03:02:35;;;;;;;2.83;2.63;;;;;;;12.80;100.00;95549.34;5038405;28;20356;-73
2021/07/27 03:05:05;;;;;;;9.60;3.23;;;;;;;12.67;100.00;95554.63;5056106;28;20594;-72
2021/07/27 03:07:36;;;;;;;7.23;3.27;;;;;;;12.58;100.00;95561.13;5051756;28;20223;-73
2021/07/27 03:10:20;;;;;;;16.10;4.23;;;;;;;12.44;100.00;95560.28;5052531;28;20280;-70
2021/07/27 03:12:49;;;;;;;2.30;2.03;;;;;;;12.42;100.00;95556.97;5053198;28;20225;-73
2021/07/27 03:15:19;;;;;;;2.43;1.93;;;;;;;12.42;100.00;95549.84;5057992;28;20213;-73
2021/07/27 03:17:48;;;;;;;2.67;2.47;;;;;;;12.41;100.00;95550.06;5037529;28;20309;-73
2021/07/27 03:20:17;;;;;;;4.23;3.07;;;;;;;12.40;100.00;95549.25;5059088;28;20245;-72
2021/07/27 03:22:45;;;;;;;3.73;2.27;;;;;;;12.53;100.00;95557.25;5052830;28;20211;-69
2021/07/27 03:25:16;;;;;;;3.60;1.87;;;;;;;12.55;100.00;95557.03;5050203;28;20275;-69
2021/07/27 03:27:45;;;;;;;3.63;2.17;;;;;;;12.51;100.00;95550.50;5031423;28;20245;-69
2021/07/27 03:30:14;;;;;;;4.00;2.83;;;;;;;12.44;100.00;95544.38;5035090;28;20229;-69
2021/07/27 03:32:42;;;;;;;6.03;3.60;;;;;;;12.39;100.00;95546.81;5055039;28;20309;-68
2021/07/27 03:35:14;;;;;;;2.97;2.40;;;;;;;12.35;100.00;95546.38;5033793;28;20218;-69
2021/07/27 03:37:43;;;;;;;3.07;2.87;;;;;;;12.31;100.00;95545.13;5059132;28;20301;-69
2021/07/27 03:40:11;;;;;;;2.37;2.17;;;;;;;12.23;100.00;95543.47;5057155;28;20312;-69
2021/07/27 03:42:39;;;;;;;2.23;2.13;;;;;;;12.26;100.00;95536.19;5051973;28;20234;-69
2021/07/27 03:45:08;;;;;;;3.33;2.20;;;;;;;12.30;100.00;95537.41;5036430;28;20226;-69
2021/07/27 03:47:36;;;;;;;1.73;1.63;;;;;;;12.29;100.00;95535.78;5054623;28;20263;-69
2021/07/27 03:50:05;;;;;;;3.83;1.97;;;;;;;12.21;100.00;95537.56;5056687;28;20230;-69
2021/07/27 03:52:35;;;;;;;3.83;2.73;;;;;;;12.21;100.00;95542.03;5053719;28;20279;-69
2021/07/27 03:55:03;;;;;;;1.83;1.73;;;;;;;12.23;100.00;95538.19;5060948;28;20222;-69
2021/07/27 03:57:32;;;;;;;1.80;1.70;;;;;;;12.24;100.00;95542.44;5063277;28;20218;-69
2021/07/27 04:00:00;;;;;;;40.70;3.93;;;;;;;12.28;100.00;95550.03;5059648;28;20276;-69
2021/07/27 04:02:28;;;;;;;2.20;2.10;;;;;;;12.28;100.00;95550.03;5055542;28;20734;-69
2021/07/27 04:04:55;;;;;;;2.40;2.30;;;;;;;12.31;100.00;95544.31;5060939;28;20230;-69
2021/07/27 04:07:23;;;;;;;2.67;2.47;;;;;;;12.37;100.00;95549.66;5057567;28;20214;-69
2021/07/27 04:09:53;;;;;;;3.13;2.93;;;;;;;12.73;100.00;95554.66;5054497;28;20850;-69
2021/07/27 04:12:22;;;;;;;2.53;2.33;;;;;;;12.89;100.00;95550.00;5044193;28;20473;-69
2021/07/27 04:14:49;;;;;;;2.40;2.30;;;;;;;12.90;100.00;95549.81;5076808;28;20248;-69
2021/07/27 04:17:18;;;;;;;1.87;1.77;;;;;;;12.90;100.00;95547.16;5086040;28;20280;-69
2021/07/27 04:19:47;;;;;;;2.67;2.47;;;;;;;12.90;100.00;95551.66;5067280;28;20499;-69
2021/07/27 04:22:15;;;;;;;2.37;2.23;;;;;;;13.07;100.00;95552.88;5082349;28;20280;-69
2021/07/27 04:24:43;;;;;;;2.40;2.30;;;;;;;13.25;100.00;95563.72;5063651;28;20441;-69
2021/07/27 04:27:12;;;;;;;3.90;2.83;;;;;;;13.34;100.00;95551.09;5058264;28;20231;-68
2021/07/27 04:29:41;;;;;;;2.17;2.07;;;;;;;13.40;100.00;95554.78;5078826;28;20694;-69
2021/07/27 04:32:09;;;;;;;2.90;2.70;;;;;;;13.44;100.00;95546.22;5057610;28;20226;-69
2021/07/27 04:34:37;;;;;;;2.37;2.20;;;;;;;13.47;100.00;95547.66;5069557;28;20921;-69
2021/07/27 04:37:05;;;;;;;2.90;2.70;;;;;;;13.47;100.00;95539.69;5078093;28;20831;-69
2021/07/27 04:39:34;;;;;;;2.97;2.80;;;;;;;13.49;100.00;95537.66;5075225;28;20229;-69
2021/07/27 04:42:02;;;;;;;3.67;3.43;;;;;;;13.61;100.00;95536.00;5064854;28;20250;-69
2021/07/27 04:44:31;;;;;;;2.83;2.43;;;;;;;13.73;100.00;95523.78;5070756;28;20238;-69
2021/07/27 04:46:59;;;;;;;2.47;2.27;;;;;;;13.82;100.00;95533.13;5055355;28;25188;-69
2021/07/27 04:49:27;;;;;;;2.80;2.60;;;;;;;13.91;100.00;95531.91;5056184;28;20310;-69
2021/07/27 04:51:58;;;;;;;4.20;2.90;;;;;;;13.89;100.00;95533.91;5052948;28;20219;-69
2021/07/27 04:54:29;;;;;;;2.60;2.50;;;;;;;13.88;100.00;95524.34;5042602;28;20222;-69
2021/07/27 04:57:01;;;;;;;2.77;2.60;;;;;;;13.93;100.00;95524.53;5063278;28;20291;-69
2021/07/27 04:59:33;;;;;;;1.90;1.80;;;;;;;13.97;100.00;95535.53;5047875;28;20267;-69
2021/07/27 05:02:01;;;;;;;2.57;2.47;;;;;;;13.94;100.00;95531.47;5075764;28;20340;-69
2021/07/27 05:04:30;;;;;;;5.27;3.30;;;;;;;14.00;100.00;95534.34;5064706;28;20214;-69
2021/07/27 05:06:58;;;;;;;3.60;2.20;;;;;;;14.07;100.00;95529.78;5070017;28;20961;-69
2021/07/27 05:09:27;;;;;;;2.87;2.63;;;;;;;14.12;100.00;95528.16;5069059;28;20213;-69
2021/07/27 05:11:57;;;;;;;11.83;4.13;;;;;;;14.26;100.00;95533.41;5063830;28;20564;-69
2021/07/27 05:14:24;;;;;;;9.13;2.97;;;;;;;14.37;100.00;95525.63;5070422;28;20219;-69
2021/07/27 05:16:54;;;;;;;4.83;2.73;;;;;;;14.42;100.00;95531.09;5066349;28;20229;-69
2021/07/27 05:19:25;;;;;;;2.07;1.97;;;;;;;14.51;100.00;95521.91;5071628;28;20533;-69
2021/07/27 05:21:54;;;;;;;2.97;2.77;;;;;;;14.63;100.00;95524.72;5048306;28;20287;-69
2021/07/27 05:24:22;;;;;;;1.50;1.40;;;;;;;14.71;100.00;95521.00;5065926;28;20229;-69
2021/07/27 05:26:50;;;;;;;3.97;3.67;;;;;;;14.82;100.00;95523.00;5058050;28;20215;-69
2021/07/27 05:29:19;;;;;;;4.40;2.93;;;;;;;14.87;100.00;95525.81;5060418;28;20268;-69
2021/07/27 05:31:48;;;;;;;2.53;2.33;;;;;;;14.97;100.00;95528.81;5051352;28;20226;-69
2021/07/27 05:34:18;;;;;;;2.60;2.50;;;;;;;15.10;100.00;95529.78;5037323;28;20586;-69
2021/07/27 05:36:46;;;;;;;3.13;2.93;;;;;;;15.21;100.00;95516.59;5053129;28;20218;-69
2021/07/27 05:39:14;;;;;;;5.27;3.97;;;;;;;15.34;100.00;95524.44;5054796;28;20305;-68
2021/07/27 05:41:42;;;;;;;2.83;2.43;;;;;;;15.44;100.00;95526.63;5054987;28;20957;-69
2021/07/27 05:44:11;;;;;;;2.93;2.80;;;;;;;15.55;100.00;95528.59;5042896;28;20261;-69
2021/07/27 05:46:38;;;;;;;2.40;2.30;;;;;;;15.69;100.00;95528.50;5036842;28;20226;-69
2021/07/27 05:49:09;;;;;;;2.67;2.50;;;;;;;15.88;100.00;95528.31;5027950;28;20576;-69
2021/07/27 05:51:39;;;;;;;2.47;2.27;;;;;;;15.98;100.00;95530.47;5052586;28;20223;-69
2021/07/27 05:54:08;;;;;;;2.60;2.50;;;;;;;16.13;99.98;95522.94;5053103;28;20230;-69
2021/07/27 05:56:36;;;;;;;1.93;1.83;;;;;;;16.26;99.29;95524.63;5031059;28;20222;-69
2021/07/27 05:59:04;;;;;;;3.87;2.10;;;;;;;16.39;99.04;95529.00;5041169;28;20242;-69
2021/07/27 06:01:34;;;;;;;2.23;2.07;;;;;;;16.57;98.13;95531.66;5062843;28;20691;-69
2021/07/27 06:04:02;;;;;;;2.60;2.40;;;;;;;16.71;97.20;95533.13;5062369;28;20250;-69
2021/07/27 06:06:32;;;;;;;3.67;2.97;;;;;;;16.80;96.71;95530.16;5059052;28;20843;-69
2021/07/27 06:09:03;;;;;;;2.57;2.37;;;;;;;16.90;96.54;95525.91;5062328;28;20655;-69
2021/07/27 06:11:31;;;;;;;2.60;2.47;;;;;;;17.02;96.42;95525.97;5059069;28;20222;-69
2021/07/27 06:14:01;;;;;;;3.37;3.17;;;;;;;17.15;96.49;95532.94;5058063;28;20226;-69
2021/07/27 06:16:29;;;;;;;2.30;2.20;;;;;;;17.24;95.87;95521.72;5055687;28;20221;-69
2021/07/27 06:18:59;;;;;;;4.10;2.10;;;;;;;17.35;95.58;95534.25;5053012;28;20226;-69
2021/07/27 06:21:27;;;;;;;6.17;3.57;;;;;;;17.43;95.40;95524.31;5043357;28;20218;-69
2021/07/27 06:23:55;;;;;;;3.03;2.43;;;;;;;17.51;95.00;95529.31;5039584;28;20268;-68
2021/07/27 06:26:25;;;;;;;1.83;1.73;;;;;;;17.62;94.14;95537.31;5062943;28;20218;-68
2021/07/27 06:28:53;;;;;;;2.93;2.73;;;;;;;17.75;94.71;95547.00;5047036;28;20694;-68
2021/07/27 06:31:21;;;;;;;2.30;2.03;;;;;;;17.84;95.06;95542.94;5054052;28;20242;-68
2021/07/27 06:33:50;;;;;;;3.00;2.70;;;;;;;17.96;94.73;95544.78;5051177;28;20218;-69
2021/07/27 06:36:18;;;;;;;2.73;2.63;;;;;;;18.06;94.25;95550.38;5068951;28;20217;-68
2021/07/27 06:38:46;;;;;;;3.47;3.27;;;;;;;18.08;93.71;95543.72;5067562;28;20295;-69
2021/07/27 06:41:14;;;;;;;3.00;2.77;;;;;;;18.12;93.81;95552.09;5057112;28;20315;-68
2021/07/27 06:43:44;;;;;;;4.60;3.03;;;;;;;18.17;94.35;95552.22;5068972;28;20219;-69
2021/07/27 06:46:12;;;;;;;2.43;2.20;;;;;;;18.26;94.78;95550.81;5078381;28;20451;-69
2021/07/27 06:48:42;;;;;;;2.50;2.40;;;;;;;18.35;93.99;95549.41;5055057;28;20726;-69
2021/07/27 06:51:12;;;;;;;2.90;2.70;;;;;;;18.42;94.10;95552.75;5055646;28;20295;-68
2021/07/27 06:53:41;;;;;;;4.50;2.70;;;;;;;18.59;93.73;95544.81;5061458;28;20222;-69
2021/07/27 06:56:10;;;;;;;3.57;3.30;;;;;;;18.61;93.04;95541.91;5059456;28;20218;-69
2021/07/27 06:58:39;;;;;;;3.83;3.60;;;;;;;18.62;93.51;95532.84;5065900;28;20221;-68
2021/07/27 07:01:10;;;;;;;3.40;3.23;;;;;;;18.68;94.28;95537.28;5045583;28;20237;-69
2021/07/27 07:03:38;;;;;;;2.60;2.50;;;;;;;18.71;93.34;95542.94;5062498;28;20649;-69
2021/07/27 07:06:06;;;;;;;5.47;4.00;;;;;;;18.62;93.88;95539.00;5064324;28;20226;-69
2021/07/27 07:08:34;;;;;;;2.33;2.20;;;;;;;18.83;92.91;95528.72;5069169;28;20246;-69
2021/07/27 07:11:04;;;;;;;2.90;2.70;;;;;;;19.00;92.14;95526.91;5076077;28;20449;-69
2021/07/27 07:13:33;;;;;;;3.27;2.93;;;;;;;19.17;91.58;95526.94;5060007;28;21224;-69
2021/07/27 07:16:03;;;;;;;3.27;3.07;;;;;;;19.17;91.37;95521.59;5061478;28;20226;-68
2021/07/27 07:18:33;;;;;;;3.40;3.30;;;;;;;19.33;91.41;95521.63;5050129;28;20695;-69
2021/07/27 07:21:04;;;;;;;3.43;3.17;;;;;;;19.47;89.36;95519.44;5048450;28;20541;-68
2021/07/27 07:23:32;;;;;;;3.97;2.53;;;;;;;19.65;88.97;95521.09;5071616;28;20721;-69
2021/07/27 07:26:02;;;;;;;3.23;2.60;;;;;;;19.76;89.25;95517.53;5052693;28;20234;-69
2021/07/27 07:28:31;;;;;;;3.23;3.03;;;;;;;19.99;88.38;95523.75;5060468;28;20217;-68
2021/07/27 07:30:59;;;;;;;2.87;2.67;;;;;;;20.15;87.06;95530.94;5060224;28;20272;-68
2021/07/27 07:33:27;;;;;;;2.17;2.07;;;;;;;20.29;86.22;95531.38;5064736;28;20222;-68
2021/07/27 07:35:56;;;;;;;2.63;2.20;;;;;;;20.48;86.61;95527.38;5043716;28;20703;-69
2021/07/27 07:38:24;;;;;;;2.60;2.50;;;;;;;20.64;84.22;95539.13;5042849;28;20266;-69
2021/07/27 07:40:53;;;;;;;5.57;2.07;;;;;;;20.79;83.62;95525.91;5054882;28;20297;-69
2021/07/27 07:43:20;;;;;;;3.00;2.30;;;;;;;20.90;82.63;95532.19;5041630;28;20996;-69
2021/07/27 07:45:49;;;;;;;2.43;2.23;;;;;;;21.10;80.71;95527.03;5056194;28;20237;-69
2021/07/27 07:48:17;;;;;;;2.83;2.10;;;;;;;21.26;80.12;95525.31;5043632;28;20224;-68
2021/07/27 07:50:44;;;;;;;2.17;2.03;;;;;;;21.50;80.03;95533.88;5057833;28;20313;-69
2021/07/27 07:53:14;;;;;;;2.20;2.10;;;;;;;21.68;78.91;95533.50;5061916;28;20255;-69
2021/07/27 07:55:41;;;;;;;3.47;2.67;;;;;;;21.88;77.49;95532.03;5062496;28;20250;-68
2021/07/27 07:58:09;;;;;;;4.40;2.20;;;;;;;22.05;76.12;95535.38;5064733;28;20304;-68
2021/07/27 08:00:37;;;;;;;3.70;2.83;;;;;;;21.84;71.71;95531.72;5048318;28;20226;-69
2021/07/27 08:03:05;;;;;;;3.33;2.70;;;;;;;21.91;72.06;95531.50;5063879;28;20218;-68
2021/07/27 08:05:33;;;;;;;3.20;3.00;;;;;;;22.05;71.12;95532.69;5069287;28;20312;-69
2021/07/27 08:08:01;;;;;;;2.67;2.53;;;;;;;22.34;68.05;95536.66;5059035;28;20241;-69
2021/07/27 08:10:30;;;;;;;3.23;2.97;;;;;;;22.51;68.80;95538.38;5041852;28;20904;-69
2021/07/27 08:12:58;;;;;;;1.97;1.87;;;;;;;22.76;71.06;95526.88;5041059;28;20215;-69
2021/07/27 08:15:26;;;;;;;2.87;2.67;;;;;;;23.03;72.97;95532.91;5067175;28;20242;-68
2021/07/27 08:17:55;;;;;;;4.73;2.53;;;;;;;22.99;70.53;95535.34;5075465;28;20255;-69
2021/07/27 08:20:23;;;;;;;3.47;3.27;;;;;;;23.34;71.70;95533.81;5061970;28;20226;-69
2021/07/27 08:22:53;;;;;;;3.00;2.80;;;;;;;23.65;69.72;95533.88;5051030;28;20223;-69
2021/07/27 08:25:22;;;;;;;2.70;2.50;;;;;;;23.89;68.19;95540.34;5071275;28;20271;-70
2021/07/27 08:27:52;;;;;;;2.67;2.58;;;;;;;23.66;65.88;95536.28;5047883;28;20445;-69
2021/07/27 08:30:19;;;;;;;3.03;2.72;;;;;;;23.84;65.47;95534.94;5053812;28;20301;-69
2021/07/27 08:32:48;;;;;;;4.63;3.30;;;;;;;24.03;66.65;95535.19;5070699;28;20224;-68
2021/07/27 08:35:17;;;;;;;2.20;2.10;;;;;;;24.34;67.48;95536.00;5065844;28;20228;-69
2021/07/27 08:37:46;;;;;;;2.08;1.98;;;;;;;24.45;65.10;95524.09;5074513;28;20698;-70
2021/07/27 08:40:15;;;;;;;2.88;2.78;;;;;;;24.63;65.48;95523.47;5062584;28;20234;-69
2021/07/27 08:42:44;;;;;;;2.60;2.30;;;;;;;24.90;65.18;95522.28;5045996;28;20650;-69
2021/07/27 08:45:14;;;;;;;2.85;2.75;;;;;;;25.07;62.94;95511.97;5078029;28;20303;-70
2021/07/27 08:47:44;;;;;;;3.25;3.03;;;;;;;25.13;61.85;95518.94;5072258;28;20255;-69
2021/07/27 08:50:13;;;;;;;2.75;2.65;;;;;;;25.32;60.48;95523.69;5060001;28;20901;-69
2021/07/27 08:52:41;;;;;;;3.05;2.85;;;;;;;25.58;60.20;95527.84;5051762;28;20238;-69
2021/07/27 08:55:10;;;;;;;3.00;2.38;;;;;;;25.59;60.27;95526.75;5056930;28;20227;-69
2021/07/27 08:57:46;;;;;;;11.40;3.50;;;;;;;25.35;58.39;95523.97;5036431;28;20257;-69
2021/07/27 09:00:16;;;;;;;2.90;2.70;;;;;;;25.38;57.01;95528.00;5036695;28;20218;-69
2021/07/27 09:02:44;;;;;;;4.88;2.60;;;;;;;25.91;55.04;95522.75;5053691;28;20226;-69
2021/07/27 09:05:14;;;;;;;3.67;3.45;;;;;;;26.30;51.98;95522.63;5034856;28;20218;-70
2021/07/27 09:07:42;;;;;;;2.33;2.20;;;;;;;26.43;52.33;95516.59;5056224;28;20257;-70
2021/07/27 09:10:15;;;;;;;2.85;2.70;;;;;;;26.57;53.02;95514.00;5053346;28;20476;-69
2021/07/27 09:12:56;;;;;;;2.80;2.67;;;;;;;26.61;53.17;95515.03;5038969;28;20260;-69
2021/07/27 09:15:27;;;;;;;2.92;2.72;;;;;;;26.85;55.26;95504.97;5040866;28;20739;-69
2021/07/27 09:17:58;;;;;;;2.75;2.58;;;;;;;27.20;53.68;95508.34;5057381;28;20688;-69
2021/07/27 09:20:33;;;;;;;3.33;1.70;;;;;;;27.43;48.84;95501.22;5051606;28;20245;-69
2021/07/27 09:23:03;;;;;;;3.22;2.53;;;;;;;27.46;51.90;95504.16;5056532;28;20219;-69
2021/07/27 09:25:33;;;;;;;3.75;3.45;;;;;;;27.68;51.35;95500.06;5036983;28;20639;-69
2021/07/27 09:28:07;;;;;;;2.90;2.70;;;;;;;27.64;52.08;95501.72;5055921;28;20218;-69
2021/07/27 09:30:37;;;;;;;2.17;1.98;;;;;;;27.67;52.81;95501.16;5050513;28;20257;-70
2021/07/27 09:33:06;;;;;;;2.72;2.53;;;;;;;27.67;52.95;95501.16;5034661;28;20234;-70
2021/07/27 09:35:35;;;;;;;2.42;2.33;;;;;;;27.91;52.33;95501.03;5053511;28;20667;-69
2021/07/27 09:38:09;;;;;;;2.55;2.45;;;;;;;28.05;49.40;95499.94;5053738;28;20226;-69
2021/07/27 09:40:38;;;;;;;4.05;3.75;;;;;;;27.96;48.25;95504.44;5052279;28;20249;-69
2021/07/27 09:43:07;;;;;;;2.55;2.40;;;;;;;27.83;50.58;95499.81;5056065;28;20274;-69
2021/07/27 09:45:36;;;;;;;2.72;2.10;;;;;;;27.89;51.32;95495.09;5058605;28;20281;-69
2021/07/27 09:48:07;;;;;;;3.25;3.13;;;;;;;27.55;51.80;95503.50;5053634;28;20776;-69
2021/07/27 09:50:35;;;;;;;3.78;3.22;;;;;;;27.37;52.69;95500.50;5054372;28;20229;-69
2021/07/27 09:53:04;;;;;;;1.70;1.60;;;;;;;27.42;52.64;95495.00;5052628;28;20417;-69
2021/07/27 09:55:33;;;;;;;2.03;1.92;;;;;;;27.74;50.89;95496.16;5055639;28;20288;-69
2021/07/27 09:58:01;;;;;;;2.30;2.20;;;;;;;28.12;48.41;95496.06;5051408;28;20537;-69
2021/07/27 10:00:31;;;;;;;2.97;2.55;;;;;;;28.16;47.20;95492.44;5054235;28;20700;-69
2021/07/27 10:03:02;;;;;;;3.35;3.13;;;;;;;28.04;49.31;95494.81;5038264;28;20229;-69
2021/07/27 10:05:31;;;;;;;3.33;3.13;;;;;;;28.33;51.59;95497.31;5056221;28;20304;-69
2021/07/27 10:07:59;;;;;;;3.42;3.22;;;;;;;28.70;53.20;95498.22;5055443;28;20338;-69
2021/07/27 10:10:39;;;;;;;3.30;3.10;;;;;;;29.41;51.79;95499.44;5058375;28;21580;-69
2021/07/27 10:13:11;;;;;;;4.63;4.18;;;;;;;29.90;49.12;95500.47;5032297;28;20242;-69
2021/07/27 10:15:42;;;;;;;3.70;3.40;;;;;;;30.21;48.86;95490.44;5034895;28;20219;-69
2021/07/27 10:18:12;;;;;;;4.03;3.78;;;;;;;30.59;49.24;95495.41;5056717;28;20223;-69
2021/07/27 10:20:41;;;;;;;2.38;2.17;;;;;;;30.62;47.48;95492.03;5053935;28;20786;-69
2021/07/27 10:23:20;;;;;;;3.25;3.05;;;;;;;30.95;47.92;95491.69;5054871;28;20789;-69
2021/07/27 10:25:55;;;;;;;2.47;2.38;;;;;;;31.27;48.03;95490.47;5055929;28;20305;-69
2021/07/27 10:28:25;;;;;;;3.22;2.15;;;;;;;30.89;44.20;95482.84;5061607;28;20302;-69
2021/07/27 10:31:03;;;;;;;2.35;2.17;;;;;;;30.35;46.11;95484.06;5058407;28;20233;-69
2021/07/27 10:33:33;;;;;;;2.00;1.90;;;;;;;30.42;45.46;95484.44;5056798;28;20736;-69
2021/07/27 10:36:01;;;;;;;2.70;2.60;;;;;;;30.40;44.79;95486.69;5057545;28;20226;-69
2021/07/27 10:38:38;;;;;;;3.28;2.55;;;;;;;30.12;45.45;95484.16;5055483;28;20253;-69
2021/07/27 10:41:17;;;;;;;2.63;2.42;;;;;;;30.30;44.76;95477.66;5052366;28;20301;-69
2021/07/27 10:43:45;;;;;;;2.08;1.98;;;;;;;29.97;45.61;95485.31;5052582;28;20692;-69
2021/07/27 10:46:13;;;;;;;2.60;2.50;;;;;;;30.23;50.44;95471.06;5036005;28;20214;-69
2021/07/27 10:48:43;;;;;;;2.25;2.15;;;;;;;30.63;46.85;95474.56;5052066;28;20316;-69
2021/07/27 10:51:11;;;;;;;2.30;2.20;;;;;;;30.69;44.99;95469.81;5029775;28;20247;-69
2021/07/27 10:53:41;;;;;;;2.50;2.40;;;;;;;30.35;45.16;95462.31;5058830;28;20281;-69
2021/07/27 10:56:10;;;;;;;4.63;3.15;;;;;;;30.16;46.71;95459.81;5053850;28;20342;-69
2021/07/27 10:58:38;;;;;;;2.60;2.40;;;;;;;29.99;46.74;95455.88;5045097;28;20217;-70
2021/07/27 11:01:12;;;;;;;2.80;2.60;;;;;;;30.02;47.11;95451.72;5062583;28;20269;-69
2021/07/27 11:03:42;;;;;;;2.67;2.45;;;;;;;30.00;47.95;95451.25;5034949;28;20233;-69
2021/07/27 11:06:10;;;;;;;2.80;2.33;;;;;;;30.07;48.10;95456.22;5065366;28;20366;-69
2021/07/27 11:08:38;;;;;;;3.13;2.95;;;;;;;30.17;48.38;95447.81;5051986;28;20254;-69
2021/07/27 11:11:08;;;;;;;3.33;2.72;;;;;;;30.44;46.47;95444.06;5051200;28;20299;-69
2021/07/27 11:13:37;;;;;;;6.35;3.40;;;;;;;30.26;45.30;95443.22;5054890;28;20695;-69
2021/07/27 11:16:05;;;;;;;7.47;2.88;;;;;;;29.92;46.15;95443.84;5048982;28;20284;-69
2021/07/27 11:18:33;;;;;;;5.55;2.60;;;;;;;29.61;45.00;95438.34;5039636;28;20267;-69
2021/07/27 11:21:03;;;;;;;2.97;2.15;;;;;;;29.48;47.34;95437.28;5057910;28;20241;-69
2021/07/27 11:23:37;;;;;;;3.63;3.33;;;;;;;29.48;48.77;95440.00;5050845;28;20309;-69
2021/07/27 11:26:05;;;;;;;3.85;2.30;;;;;;;29.68;49.06;95436.00;5045518;28;20242;-69
2021/07/27 11:28:35;;;;;;;3.70;3.50;;;;;;;29.80;45.71;95424.53;5058565;28;20578;-69
2021/07/27 11:31:04;;;;;;;3.10;2.90;;;;;;;29.76;47.46;95426.28;5060243;28;20648;-69
2021/07/27 11:33:32;;;;;;;2.97;2.53;;;;;;;29.74;48.20;95427.41;5060858;28;20260;-69
2021/07/27 11:36:00;;;;;;;2.97;2.67;;;;;;;29.70;48.88;95425.59;5061736;28;20462;-69
2021/07/27 11:38:32;;;;;;;3.00;2.70;;;;;;;29.61;48.16;95425.56;5061203;28;20742;-69
2021/07/27 11:41:06;;;;;;;2.60;2.40;;;;;;;29.12;48.10;95421.81;5051930;28;20225;-69
2021/07/27 11:43:35;;;;;;;2.75;2.58;;;;;;;29.18;49.48;95411.63;5062388;28;20317;-69
2021/07/27 11:46:08;;;;;;;2.60;2.50;;;;;;;29.20;49.40;95412.13;5068064;28;20229;-69
2021/07/27 11:48:37;;;;;;;2.83;2.72;;;;;;;29.27;48.62;95417.94;5052238;28;20603;-69
2021/07/27 11:51:05;;;;;;;3.22;3.05;;;;;;;29.28;49.63;95419.56;5056296;28;20295;-69
2021/07/27 11:53:40;;;;;;;4.85;2.83;;;;;;;29.27;47.93;95428.03;5059982;28;20221;-69
2021/07/27 11:56:12;;;;;;;2.92;2.72;;;;;;;29.17;47.89;95427.16;5065019;28;20229;-69